createdAt,value
2022-11-29T00:00:52.601Z,100274.44
2022-11-29T00:03:22.157Z,100267.00
2022-11-29T00:05:51.683Z,100278.06
2022-11-29T00:08:21.165Z,100272.88
2022-11-29T00:10:50.668Z,100269.25
2022-11-29T00:13:20.255Z,100269.44
2022-11-29T00:15:52.359Z,100267.06
2022-11-29T00:18:21.827Z,100270.19
2022-11-29T00:20:51.484Z,100263.81
2022-11-29T00:23:20.957Z,100263.00
2022-11-29T00:25:50.488Z,100266.44
2022-11-29T00:28:20.033Z,100269.47
2022-11-29T00:30:52.189Z,100267.38
2022-11-29T00:33:21.729Z,100265.38
2022-11-29T00:35:51.435Z,100264.72
2022-11-29T00:38:20.960Z,100263.94
2022-11-29T00:40:54.028Z,100270.84
2022-11-29T00:43:23.504Z,100272.47
2022-11-29T00:45:55.623Z,100267.63
2022-11-29T00:48:25.146Z,100270.25
2022-11-29T00:50:54.659Z,100269.66
2022-11-29T00:53:24.171Z,100265.19
2022-11-29T00:55:53.930Z,100269.47
2022-11-29T00:58:23.583Z,100272.34
2022-11-29T01:00:55.801Z,100277.44
2022-11-29T01:03:25.443Z,100277.25
2022-11-29T01:05:54.928Z,100273.59
2022-11-29T01:08:24.482Z,100276.25
2022-11-29T01:10:53.977Z,100282.16
2022-11-29T01:13:23.508Z,100280.50
2022-11-29T01:16:00.700Z,100279.31
2022-11-29T01:18:30.479Z,100281.78
2022-11-29T01:21:01.196Z,100293.06
2022-11-29T01:23:30.705Z,100288.22
2022-11-29T01:26:01.367Z,100287.44
2022-11-29T01:28:31.002Z,100289.69
2022-11-29T01:31:07.423Z,100290.41
2022-11-29T01:33:36.930Z,100291.03
2022-11-29T01:36:07.304Z,100289.59
2022-11-29T01:38:37.265Z,100294.69
2022-11-29T01:41:08.135Z,100293.41
2022-11-29T01:43:37.676Z,100300.34
2022-11-29T01:46:09.810Z,100298.69
2022-11-29T01:48:39.318Z,100295.69
2022-11-29T01:51:08.907Z,100295.06
2022-11-29T01:53:38.396Z,100306.41
2022-11-29T01:56:08.368Z,100299.16
2022-11-29T01:58:38.144Z,100300.34
2022-11-29T02:01:10.234Z,100303.75
2022-11-29T02:03:39.940Z,100295.41
2022-11-29T02:06:09.456Z,100303.94
2022-11-29T02:08:40.123Z,100303.94
2022-11-29T02:11:42.230Z,100302.31
2022-11-29T02:14:20.361Z,100306.50
2022-11-29T02:16:56.767Z,100302.34
2022-11-29T02:19:36.973Z,100304.53
2022-11-29T02:22:08.183Z,100294.53
2022-11-29T02:25:13.230Z,100305.31
2022-11-29T02:28:12.564Z,100305.88
2022-11-29T02:30:58.424Z,100304.13
2022-11-29T02:33:57.158Z,100307.88
2022-11-29T02:36:36.947Z,100308.50
2022-11-29T02:39:16.894Z,100296.91
2022-11-29T02:42:00.640Z,100304.25
2022-11-29T02:44:59.747Z,100311.13
2022-11-29T02:47:31.988Z,100314.94
2022-11-29T02:50:23.850Z,100304.63
2022-11-29T02:52:57.864Z,100311.34
2022-11-29T02:55:31.198Z,100311.88
2022-11-29T02:58:02.870Z,100305.59
2022-11-29T03:00:32.428Z,100320.88
2022-11-29T03:03:04.535Z,100319.78
2022-11-29T03:05:44.739Z,100317.66
2022-11-29T03:08:18.228Z,100318.56
2022-11-29T03:10:54.312Z,100311.13
2022-11-29T03:13:28.068Z,100322.47
2022-11-29T03:16:01.313Z,100315.22
2022-11-29T03:18:37.172Z,100320.66
2022-11-29T03:21:12.636Z,100317.03
2022-11-29T03:23:44.015Z,100320.84
2022-11-29T03:26:14.303Z,100321.84
2022-11-29T03:28:45.934Z,100323.66
2022-11-29T03:31:18.238Z,100321.41
2022-11-29T03:33:52.773Z,100326.69
2022-11-29T03:36:28.463Z,100329.94
2022-11-29T03:38:59.529Z,100331.13
2022-11-29T03:41:30.482Z,100334.84
2022-11-29T03:44:03.049Z,100334.00
2022-11-29T03:46:34.942Z,100334.47
2022-11-29T03:49:05.640Z,100336.03
2022-11-29T03:51:48.032Z,100338.44
2022-11-29T03:54:18.955Z,100336.66
2022-11-29T03:56:49.243Z,100336.47
2022-11-29T03:59:27.272Z,100339.91
2022-11-29T04:02:05.436Z,100341.09
2022-11-29T04:04:56.737Z,100336.66
2022-11-29T04:07:34.091Z,100345.09
2022-11-29T04:10:16.396Z,100340.38
2022-11-29T04:13:15.815Z,100340.56
2022-11-29T04:16:08.308Z,100344.81
2022-11-29T04:19:01.886Z,100343.47
2022-11-29T04:21:43.237Z,100342.81
2022-11-29T04:24:37.666Z,100352.81
2022-11-29T04:27:27.181Z,100351.63
2022-11-29T04:30:11.187Z,100357.53
2022-11-29T04:33:16.473Z,100360.78
2022-11-29T04:35:54.702Z,100359.72
2022-11-29T04:38:53.823Z,100361.16
2022-11-29T04:41:43.660Z,100366.44
2022-11-29T04:44:19.248Z,100363.63
2022-11-29T04:46:54.568Z,100355.72
2022-11-29T04:49:34.775Z,100370.59
2022-11-29T04:52:28.098Z,100369.81
2022-11-29T04:55:00.369Z,100370.06
2022-11-29T04:57:35.700Z,100378.03
2022-11-29T05:00:09.921Z,100373.31
2022-11-29T05:02:43.726Z,100377.25
2022-11-29T05:05:21.017Z,100380.44
2022-11-29T05:07:54.623Z,100375.78
2022-11-29T05:10:27.730Z,100379.53
2022-11-29T05:13:02.498Z,100386.97
2022-11-29T05:15:57.597Z,100384.78
2022-11-29T05:18:40.114Z,100389.88
2022-11-29T05:21:12.233Z,100393.59
2022-11-29T05:23:47.266Z,100388.97
2022-11-29T05:26:18.162Z,100383.97
2022-11-29T05:28:53.612Z,100387.22
2022-11-29T05:31:28.221Z,100390.25
2022-11-29T05:34:24.816Z,100388.25
2022-11-29T05:36:57.451Z,100392.75
2022-11-29T05:39:38.936Z,100388.72
2022-11-29T05:42:27.711Z,100399.31
2022-11-29T05:45:00.918Z,100393.78
2022-11-29T05:47:33.952Z,100394.69
2022-11-29T05:50:06.264Z,100395.56
2022-11-29T05:52:43.963Z,100400.59
2022-11-29T05:55:24.678Z,100394.31
2022-11-29T05:57:58.324Z,100405.50
2022-11-29T06:00:31.887Z,100400.59
2022-11-29T06:03:03.653Z,100399.59
2022-11-29T06:05:36.926Z,100413.22
2022-11-29T06:08:08.967Z,100418.41
2022-11-29T06:10:40.055Z,100420.59
2022-11-29T06:13:13.413Z,100419.56
2022-11-29T06:16:14.315Z,100432.28
2022-11-29T06:18:51.089Z,100435.75
2022-11-29T06:21:25.224Z,100436.47
2022-11-29T06:24:05.848Z,100434.91
2022-11-29T06:26:44.915Z,100444.66
2022-11-29T06:29:26.537Z,100438.56
2022-11-29T06:32:02.356Z,100438.47
2022-11-29T06:34:35.980Z,100442.13
2022-11-29T06:37:07.329Z,100448.69
2022-11-29T06:39:37.651Z,100458.72
2022-11-29T06:42:07.484Z,100454.84
2022-11-29T06:44:37.755Z,100464.66
2022-11-29T06:47:11.888Z,100450.91
2022-11-29T06:49:42.606Z,100448.22
2022-11-29T06:52:18.661Z,100453.19
2022-11-29T06:54:55.292Z,100454.66
2022-11-29T06:57:27.499Z,100464.56
2022-11-29T07:00:03.858Z,100459.63
2022-11-29T07:03:06.554Z,100460.78
2022-11-29T07:05:36.640Z,100474.50
2022-11-29T07:08:07.587Z,100474.69
2022-11-29T07:10:38.812Z,100473.63
2022-11-29T07:13:08.867Z,100477.00
2022-11-29T07:15:38.305Z,100479.44
2022-11-29T07:18:17.332Z,100481.53
2022-11-29T07:20:52.183Z,100487.25
2022-11-29T07:23:24.800Z,100481.91
2022-11-29T07:25:59.334Z,100488.81
2022-11-29T07:28:36.411Z,100496.53
2022-11-29T07:31:09.022Z,100493.34
2022-11-29T07:33:44.962Z,100491.81
2022-11-29T07:36:17.290Z,100495.25
2022-11-29T07:38:54.408Z,100499.97
2022-11-29T07:41:26.327Z,100500.06
2022-11-29T07:43:59.129Z,100500.19
2022-11-29T07:46:29.078Z,100502.88
2022-11-29T07:49:01.221Z,100506.19
2022-11-29T07:51:30.721Z,100507.38
2022-11-29T07:54:00.193Z,100502.72
2022-11-29T07:56:29.945Z,100508.16
2022-11-29T07:58:59.493Z,100509.63
2022-11-29T08:01:29.048Z,100512.19
2022-11-29T08:04:01.125Z,100513.81
2022-11-29T08:06:30.559Z,100505.69
2022-11-29T08:09:00.168Z,100517.34
2022-11-29T08:11:29.961Z,100512.69
2022-11-29T08:13:59.919Z,100514.88
2022-11-29T08:16:29.455Z,100521.50
2022-11-29T08:19:01.588Z,100524.81
2022-11-29T08:21:31.286Z,100526.72
2022-11-29T08:24:00.764Z,100530.75
2022-11-29T08:26:31.885Z,100530.75
2022-11-29T08:29:01.658Z,100535.44
2022-11-29T08:31:31.177Z,100534.75
2022-11-29T08:34:03.332Z,100538.50
2022-11-29T08:36:32.796Z,100538.56
2022-11-29T08:39:08.997Z,100539.94
2022-11-29T08:41:39.120Z,100545.75
2022-11-29T08:44:08.676Z,100543.72
2022-11-29T08:46:53.012Z,100548.28
2022-11-29T08:49:25.066Z,100553.25
2022-11-29T08:52:14.997Z,100551.72
2022-11-29T08:54:41.927Z,100552.50
2022-11-29T08:57:38.656Z,100553.97
2022-11-29T09:00:00.885Z,100563.34
2022-11-29T09:02:30.703Z,100560.28
2022-11-29T09:05:02.781Z,100558.22
2022-11-29T09:07:32.324Z,100560.25
2022-11-29T09:10:05.016Z,100567.34
2022-11-29T09:12:34.908Z,100568.44
2022-11-29T09:15:04.421Z,100578.75
2022-11-29T09:17:33.967Z,100570.22
2022-11-29T09:20:06.587Z,100571.94
2022-11-29T09:22:36.064Z,100579.31
2022-11-29T09:25:05.616Z,100579.59
2022-11-29T09:27:35.096Z,100590.03
2022-11-29T09:30:04.588Z,100584.03
2022-11-29T09:32:34.115Z,100588.28
2022-11-29T09:35:06.275Z,100586.84
2022-11-29T09:37:36.994Z,100590.13
2022-11-29T09:40:07.189Z,100595.22
2022-11-29T09:42:43.874Z,100591.41
2022-11-29T09:45:14.421Z,100604.50
2022-11-29T09:48:00.216Z,100591.84
2022-11-29T09:50:35.396Z,100596.75
2022-11-29T09:53:26.105Z,100604.31
2022-11-29T09:56:11.590Z,100594.50
2022-11-29T09:58:44.336Z,100606.59
2022-11-29T10:01:15.621Z,100598.69
2022-11-29T10:03:46.835Z,100605.94
2022-11-29T10:06:20.637Z,100596.91
2022-11-29T10:08:51.049Z,100599.41
2022-11-29T10:11:22.019Z,100600.41
2022-11-29T10:13:53.512Z,100600.09
2022-11-29T10:16:26.694Z,100602.56
2022-11-29T10:18:58.832Z,100601.03
2022-11-29T10:21:32.481Z,100602.44
2022-11-29T10:24:03.695Z,100608.22
2022-11-29T10:26:35.318Z,100608.13
2022-11-29T10:29:05.109Z,100605.88
2022-11-29T10:31:35.723Z,100609.47
2022-11-29T10:34:10.613Z,100608.28
2022-11-29T10:36:44.373Z,100609.47
2022-11-29T10:39:16.441Z,100605.06
2022-11-29T10:41:46.271Z,100603.78
2022-11-29T10:44:16.082Z,100608.16
2022-11-29T10:46:45.575Z,100609.88
2022-11-29T10:49:16.524Z,100610.69
2022-11-29T10:51:48.741Z,100607.94
2022-11-29T10:54:24.355Z,100615.34
2022-11-29T10:56:53.836Z,100604.06
2022-11-29T10:59:24.457Z,100603.34
2022-11-29T11:01:54.268Z,100604.13
2022-11-29T11:04:31.691Z,100607.19
2022-11-29T11:07:04.150Z,100605.06
2022-11-29T11:09:37.821Z,100609.56
2022-11-29T11:12:08.794Z,100603.94
2022-11-29T11:14:39.331Z,100606.59
2022-11-29T11:17:26.886Z,100604.56
2022-11-29T11:20:00.945Z,100611.63
2022-11-29T11:22:33.148Z,100611.44
2022-11-29T11:25:03.587Z,100615.34
2022-11-29T11:27:34.105Z,100609.66
2022-11-29T11:30:03.661Z,100622.44
2022-11-29T11:32:33.145Z,100619.22
2022-11-29T11:35:03.490Z,100621.19
2022-11-29T11:37:36.162Z,100615.22
2022-11-29T11:40:21.579Z,100619.69
2022-11-29T11:42:51.355Z,100617.56
2022-11-29T11:45:33.278Z,100620.47
2022-11-29T11:48:04.645Z,100620.84
2022-11-29T11:50:35.356Z,100621.56
2022-11-29T11:53:08.549Z,100627.00
2022-11-29T11:55:40.006Z,100632.41
2022-11-29T11:58:17.639Z,100621.41
2022-11-29T12:01:06.288Z,100634.94
2022-11-29T12:03:39.129Z,100625.81
2022-11-29T12:06:26.409Z,100621.66
2022-11-29T12:09:00.460Z,100624.56
2022-11-29T12:11:29.964Z,100632.59
2022-11-29T12:13:59.915Z,100632.00
2022-11-29T12:16:32.721Z,100628.78
2022-11-29T12:19:03.750Z,100639.06
2022-11-29T12:21:36.130Z,100637.28
2022-11-29T12:24:12.959Z,100641.53
2022-11-29T12:26:59.141Z,100639.06
2022-11-29T12:29:30.312Z,100647.75
2022-11-29T12:32:05.439Z,100640.19
2022-11-29T12:34:43.609Z,100642.50
2022-11-29T12:37:16.399Z,100646.38
2022-11-29T12:39:53.045Z,100648.91
2022-11-29T12:42:28.036Z,100651.97
2022-11-29T12:45:01.518Z,100648.78
2022-11-29T12:47:38.696Z,100642.47
2022-11-29T12:50:19.246Z,100639.03
2022-11-29T12:52:50.871Z,100635.59
2022-11-29T12:55:26.073Z,100639.50
2022-11-29T12:58:00.440Z,100638.44
2022-11-29T13:00:31.706Z,100641.50
2022-11-29T13:03:04.961Z,100642.50
2022-11-29T13:05:42.214Z,100651.66
2022-11-29T13:08:21.610Z,100652.63
2022-11-29T13:10:58.967Z,100648.53
2022-11-29T13:13:32.890Z,100646.00
2022-11-29T13:16:04.869Z,100656.56
2022-11-29T13:18:36.675Z,100651.47
2022-11-29T13:21:07.851Z,100649.66
2022-11-29T13:24:07.437Z,100654.59
2022-11-29T13:26:30.638Z,100658.31
2022-11-29T13:29:00.150Z,100658.75
2022-11-29T13:31:29.636Z,100659.00
2022-11-29T13:34:01.652Z,100655.16
2022-11-29T13:36:45.098Z,100656.72
2022-11-29T13:39:22.208Z,100659.59
2022-11-29T13:41:58.255Z,100662.41
2022-11-29T13:44:31.665Z,100662.00
2022-11-29T13:47:06.141Z,100656.88
2022-11-29T13:49:57.262Z,100664.22
2022-11-29T13:52:41.730Z,100671.63
2022-11-29T13:55:23.119Z,100676.06
2022-11-29T14:00:51.678Z,100683.69
2022-11-29T14:03:30.864Z,100676.53
2022-11-29T14:06:24.726Z,100684.34
2022-11-29T14:09:24.785Z,100687.50
2022-11-29T14:11:59.425Z,100689.50
2022-11-29T14:14:32.052Z,100694.59
2022-11-29T14:17:02.331Z,100699.91
2022-11-29T14:19:33.973Z,100693.09
2022-11-29T14:22:23.327Z,100693.09
2022-11-29T14:25:50.687Z,100692.03
2022-11-29T14:28:32.388Z,100696.31
2022-11-29T14:31:04.991Z,100689.00
2022-11-29T14:33:59.188Z,100694.53
2022-11-29T14:36:36.173Z,100692.41
2022-11-29T14:39:14.720Z,100698.53
2022-11-29T14:41:52.812Z,100702.88
2022-11-29T14:44:24.838Z,100701.34
2022-11-29T14:47:05.329Z,100709.16
2022-11-29T14:49:35.540Z,100708.94
2022-11-29T14:52:12.065Z,100710.47
2022-11-29T14:54:55.817Z,100713.00
2022-11-29T14:57:55.552Z,100702.78
2022-11-29T15:00:25.999Z,100716.78
2022-11-29T15:02:58.969Z,100712.69
2022-11-29T15:05:33.702Z,100713.47
2022-11-29T15:08:09.306Z,100716.94
2022-11-29T15:10:40.029Z,100720.88
2022-11-29T15:13:10.851Z,100727.09
2022-11-29T15:15:44.710Z,100729.66
2022-11-29T15:18:25.397Z,100732.91
2022-11-29T15:21:06.470Z,100730.66
2022-11-29T15:23:42.674Z,100743.22
2022-11-29T15:26:18.963Z,100744.25
2022-11-29T15:28:48.465Z,100746.78
2022-11-29T15:31:19.494Z,100743.34
2022-11-29T15:33:51.849Z,100738.69
2022-11-29T15:36:22.196Z,100741.72
2022-11-29T15:38:52.582Z,100746.75
2022-11-29T15:41:23.373Z,100750.75
2022-11-29T15:43:55.326Z,100754.31
2022-11-29T15:46:26.940Z,100753.84
2022-11-29T15:48:58.965Z,100758.75
2022-11-29T15:51:30.593Z,100751.41
2022-11-29T15:54:12.078Z,100755.22
2022-11-29T15:56:43.842Z,100760.84
2022-11-29T15:59:18.996Z,100764.59
2022-11-29T16:01:49.015Z,100759.78
2022-11-29T16:04:21.933Z,100774.06
2022-11-29T16:06:51.822Z,100770.84
2022-11-29T16:09:23.704Z,100776.97
2022-11-29T16:11:53.203Z,100773.50
2022-11-29T16:14:24.877Z,100767.94
2022-11-29T16:16:55.583Z,100765.31
2022-11-29T16:19:31.804Z,100768.78
2022-11-29T16:22:02.836Z,100768.50
2022-11-29T16:24:32.359Z,100773.94
2022-11-29T16:27:02.918Z,100778.16
2022-11-29T16:29:33.468Z,100777.50
2022-11-29T16:32:03.049Z,100771.13
2022-11-29T16:34:35.651Z,100780.06
2022-11-29T16:37:06.364Z,100776.13
2022-11-29T16:39:35.917Z,100777.91
2022-11-29T16:42:09.315Z,100776.91
2022-11-29T16:45:05.080Z,100778.47
2022-11-29T16:47:35.126Z,100783.00
2022-11-29T16:50:17.211Z,100794.91
2022-11-29T16:52:48.851Z,100795.94
2022-11-29T16:55:20.690Z,100789.00
2022-11-29T16:57:50.236Z,100789.34
2022-11-29T17:00:26.538Z,100794.34
2022-11-29T17:02:56.341Z,100786.09
2022-11-29T17:05:28.471Z,100797.81
2022-11-29T17:07:58.201Z,100796.69
2022-11-29T17:10:28.920Z,100795.09
2022-11-29T17:12:58.515Z,100793.22
2022-11-29T17:15:27.976Z,100794.19
2022-11-29T17:17:57.527Z,100792.78
2022-11-29T17:20:29.619Z,100793.75
2022-11-29T17:22:59.087Z,100795.28
2022-11-29T17:25:28.570Z,100789.44
2022-11-29T17:27:58.115Z,100798.81
2022-11-29T17:30:28.905Z,100797.59
2022-11-29T17:32:58.395Z,100810.56
2022-11-29T17:35:30.520Z,100799.88
2022-11-29T17:38:01.340Z,100806.72
2022-11-29T17:40:30.847Z,100813.50
2022-11-29T17:43:00.341Z,100811.72
2022-11-29T17:45:30.150Z,100808.97
2022-11-29T17:48:01.750Z,100811.34
2022-11-29T17:50:33.808Z,100815.44
2022-11-29T17:53:03.302Z,100820.72
2022-11-29T17:55:32.753Z,100813.00
2022-11-29T17:58:02.222Z,100821.00
2022-11-29T18:00:31.730Z,100816.09
2022-11-29T18:03:01.238Z,100832.94
2022-11-29T18:05:34.878Z,100831.25
2022-11-29T18:08:05.906Z,100832.72
2022-11-29T18:10:36.064Z,100833.09
2022-11-29T18:13:05.557Z,100833.41
2022-11-29T18:15:35.417Z,100831.50
2022-11-29T18:18:04.907Z,100837.06
2022-11-29T18:20:37.001Z,100835.59
2022-11-29T18:23:08.204Z,100838.78
2022-11-29T18:25:39.467Z,100850.97
2022-11-29T18:28:11.343Z,100849.31
2022-11-29T18:30:40.912Z,100841.03
2022-11-29T18:43:58.548Z,100844.97
2022-11-29T18:47:01.846Z,100840.03
2022-11-29T18:50:40.463Z,100845.38
2022-11-29T18:53:30.081Z,100848.78
2022-11-29T18:56:18.717Z,100850.91
2022-11-29T19:02:31.176Z,100860.50
2022-11-29T19:15:30.906Z,100876.31
2022-11-29T19:29:29.725Z,100878.97
2022-11-29T19:33:31.401Z,100868.88
2022-11-29T20:02:32.238Z,100894.09
2022-11-29T20:05:38.523Z,100898.03
2022-11-29T20:08:21.932Z,100894.84
2022-11-29T20:10:59.629Z,100895.69
2022-11-29T20:13:42.964Z,100896.63
2022-11-29T20:16:32.132Z,100903.13
2022-11-29T20:19:05.796Z,100902.75
2022-11-29T20:21:44.426Z,100893.69
2022-11-29T20:24:22.653Z,100894.66
2022-11-29T20:26:53.658Z,100898.09
2022-11-29T20:29:39.863Z,100893.41
2022-11-29T20:36:17.327Z,100892.06
2022-11-29T20:39:22.014Z,100903.13
2022-11-29T20:45:27.603Z,100907.81
2022-11-29T20:48:21.268Z,100898.06
2022-11-29T20:51:18.087Z,100903.69
2022-11-29T20:53:51.774Z,100903.84
2022-11-29T20:56:33.031Z,100899.53
2022-11-29T20:59:15.481Z,100909.66
2022-11-29T21:02:06.304Z,100911.06
2022-11-29T21:04:45.552Z,100908.53
2022-11-29T21:07:23.655Z,100920.34
2022-11-29T21:10:02.423Z,100919.09
2022-11-29T21:13:05.257Z,100921.25
2022-11-29T21:15:55.887Z,100920.88
2022-11-29T21:18:35.577Z,100918.72
2022-11-29T21:21:23.931Z,100917.31
2022-11-29T21:24:44.521Z,100920.41
2022-11-29T21:27:28.951Z,100918.09
2022-11-29T21:30:46.760Z,100920.03
2022-11-29T21:34:28.851Z,100916.06
2022-11-29T21:37:38.018Z,100914.56
2022-11-29T21:40:21.760Z,100926.31
2022-11-29T21:42:54.440Z,100926.59
2022-11-29T21:45:32.176Z,100925.94
2022-11-29T21:48:28.389Z,100920.34
2022-11-29T21:51:02.075Z,100925.78
2022-11-29T21:53:36.563Z,100928.16
2022-11-29T21:56:16.406Z,100929.09
2022-11-29T21:58:52.010Z,100924.00
2022-11-29T22:01:37.219Z,100932.91
2022-11-29T22:04:23.609Z,100930.44
2022-11-29T22:07:22.714Z,100922.53
2022-11-29T22:10:14.274Z,100921.72
2022-11-29T22:12:52.534Z,100919.25
2022-11-29T22:15:29.144Z,100914.13
2022-11-29T22:18:45.258Z,100918.09
2022-11-29T22:21:30.540Z,100912.81
2022-11-29T22:24:10.021Z,100914.97
2022-11-29T22:27:13.157Z,100919.88
2022-11-29T22:32:43.233Z,100923.50
2022-11-29T22:35:28.558Z,100922.03
2022-11-29T22:41:04.148Z,100915.94
2022-11-29T22:43:38.757Z,100923.19
2022-11-29T22:46:19.252Z,100925.06
2022-11-29T22:48:58.087Z,100931.28
2022-11-29T22:51:31.757Z,100930.63
2022-11-29T22:54:05.521Z,100930.63
2022-11-29T22:56:36.531Z,100931.44
2022-11-29T22:59:09.937Z,100930.94
2022-11-29T23:01:40.616Z,100936.06
2022-11-29T23:04:10.646Z,100932.91
2022-11-29T23:06:44.442Z,100933.09
2022-11-29T23:09:16.614Z,100937.03
2022-11-29T23:11:51.096Z,100934.91
2022-11-29T23:14:22.412Z,100936.06
2022-11-29T23:16:52.163Z,100940.97
2022-11-29T23:19:21.976Z,100946.59
2022-11-29T23:21:56.426Z,100944.06
2022-11-29T23:24:26.270Z,100953.47
2022-11-29T23:26:56.040Z,100946.75
2022-11-29T23:29:25.715Z,100954.59
2022-11-29T23:31:55.653Z,100949.66
2022-11-29T23:34:25.421Z,100943.22
2022-11-29T23:36:57.675Z,100950.69
2022-11-29T23:39:27.438Z,100944.56
2022-11-29T23:41:57.099Z,100942.56
2022-11-29T23:44:26.975Z,100951.69
2022-11-29T23:46:56.689Z,100948.94
2022-11-29T23:49:26.357Z,100951.69
2022-11-29T23:51:58.854Z,100946.19
2022-11-29T23:54:28.682Z,100953.28
2022-11-29T23:56:58.526Z,100950.44
2022-11-29T23:59:28.090Z,100955.16
